HLLM

Mitiga Airport

Tripoli, Libya
TAF HLLM 201700Z 2018/2118 VRB02KT 9999 SCT025 PROB40 2103/2106 5000 BR BECMG 2110/2112 30010KT
Issued Valid From Valid To
Aug-20 @ 17:00 UTC
(yesterday)
Aug-20 @ 18:00 UTC
(24 hours ago)
Aug-21 @ 18:00 UTC
(in 18 minutes)
Expired Click to View Aug-20 @ 18:00 to Aug-21 @ 10:00
TAF HLLM 201700Z 2018/2118 VRB02KT 9999 SCT025
Wind Visibility Clouds
Variable at 2 knots 10,000+ meters
  • Scattered at 2,500' AGL
Expired Click to View Aug-21 @ 03:00 to Aug-21 @ 06:00
PROB40 2103/2106 5000 BR
Visibility Conditions
5,005 meters
  • Mist
Becoming Aug-21 @ 10:00 to Aug-21 @ 18:00
BECMG 2110/2112 30010KT
Wind Visibility Clouds
300° at 10 knots 10,000+ meters
  • Scattered at 2,500' AGL
TAF HLLM 201700Z 2018/2118 VRB02KT 9999 SCT025 PROB40 2103/2106 5000 BR BECMG 2110/2112 30010KT
Issued Aug-20 @ 17:00 UTC
(yesterday)
Valid From Aug-20 @ 18:00 UTC
(24 hours ago)
Valid To Aug-21 @ 18:00 UTC
(in 18 minutes)
Aug-20 @ 18:00 - Aug-21 @ 10:00
Wind Visibility
Variable at 2 knots 10,000+ meters
Clouds
  • Scattered at 2,500' AGL
Aug-21 @ 03:00 - Aug-21 @ 06:00
Conditions
  • Mist
Becoming Aug-21 @ 10:00 - Aug-21 @ 18:00
Wind Visibility
300° at 10 knots 10,000+ meters
Clouds
  • Scattered at 2,500' AGL